createdAt,value
2022-08-03T00:00:24.244Z,100819.69
2022-08-03T00:02:51.099Z,100813.88
2022-08-03T00:05:17.753Z,100819.84
2022-08-03T00:07:44.220Z,100820.31
2022-08-03T00:10:11.262Z,100819.19
2022-08-03T00:12:37.730Z,100820.50
2022-08-03T00:15:04.602Z,100813.84
2022-08-03T00:17:52.846Z,100811.00
2022-08-03T00:20:21.720Z,100809.88
2022-08-03T00:22:48.727Z,100812.53
2022-08-03T00:25:15.399Z,100808.59
2022-08-03T00:27:41.862Z,100803.91
2022-08-03T00:30:08.703Z,100807.13
2022-08-03T00:32:35.212Z,100804.88
2022-08-03T00:35:07.919Z,100801.56
2022-08-03T00:37:41.723Z,100807.53
2022-08-03T00:40:12.905Z,100805.88
2022-08-03T00:42:50.805Z,100805.03
2022-08-03T00:45:22.904Z,100806.38
2022-08-03T00:47:50.398Z,100805.19
2022-08-03T00:50:18.482Z,100800.22
2022-08-03T00:52:45.374Z,100805.38
2022-08-03T00:55:12.785Z,100801.22
2022-08-03T00:57:39.643Z,100804.69
2022-08-03T01:00:07.992Z,100809.81
2022-08-03T01:02:35.038Z,100811.63
2022-08-03T01:05:01.552Z,100805.19
2022-08-03T01:08:00.330Z,100807.94
2022-08-03T01:10:49.612Z,100812.16
2022-08-03T01:14:04.588Z,100803.34
2022-08-03T01:16:36.784Z,100801.59
2022-08-03T01:19:32.422Z,100789.44
2022-08-03T01:22:04.455Z,100800.91
2022-08-03T01:24:56.379Z,100799.75
2022-08-03T01:27:31.322Z,100789.50
2022-08-03T01:30:12.439Z,100786.41
2022-08-03T01:33:02.785Z,100792.38
2022-08-03T01:35:38.647Z,100788.47
2022-08-03T01:38:41.981Z,100788.13
2022-08-03T01:41:12.837Z,100785.03
2022-08-03T01:44:27.652Z,100791.25
2022-08-03T01:46:31.391Z,100785.38
2022-08-03T01:48:59.769Z,100790.50
2022-08-03T01:52:03.351Z,100789.09
2022-08-03T01:54:16.487Z,100789.56
2022-08-03T01:56:44.109Z,100786.25
2022-08-03T01:59:12.547Z,100790.88
2022-08-03T02:02:29.768Z,100784.84
2022-08-03T02:04:28.357Z,100785.88
2022-08-03T02:07:02.039Z,100784.47
2022-08-03T02:09:31.759Z,100789.94
2022-08-03T02:11:59.168Z,100783.31
2022-08-03T02:14:27.992Z,100788.19
2022-08-03T02:16:57.296Z,100785.94
2022-08-03T02:19:26.610Z,100789.72
2022-08-03T02:21:56.392Z,100787.47
2022-08-03T02:24:27.808Z,100786.03
2022-08-03T02:26:56.606Z,100787.34
2022-08-03T02:29:39.867Z,100793.91
2022-08-03T02:32:11.560Z,100794.41
2022-08-03T02:34:39.894Z,100784.16
2022-08-03T02:37:08.604Z,100791.53
2022-08-03T02:39:36.315Z,100791.78
2022-08-03T02:42:03.371Z,100790.34
2022-08-03T02:44:32.706Z,100788.69
2022-08-03T02:47:04.979Z,100786.19
2022-08-03T02:49:40.444Z,100787.50
2022-08-03T02:52:21.248Z,100782.28
2022-08-03T02:54:51.189Z,100782.50
2022-08-03T02:57:19.972Z,100784.06
2022-08-03T02:59:47.556Z,100785.59
2022-08-03T03:02:16.821Z,100785.25
2022-08-03T03:05:53.026Z,100785.97
2022-08-03T03:07:35.350Z,100776.50
2022-08-03T03:10:19.729Z,100773.66
2022-08-03T03:12:48.230Z,100769.50
2022-08-03T03:15:14.748Z,100782.00
2022-08-03T03:17:43.712Z,100774.84
2022-08-03T03:20:11.563Z,100777.22
2022-08-03T03:22:39.819Z,100781.03
2022-08-03T03:25:07.502Z,100787.81
2022-08-03T03:27:34.555Z,100781.50
2022-08-03T03:30:02.227Z,100779.47
2022-08-03T03:32:29.564Z,100788.72
2022-08-03T03:34:56.991Z,100786.25
2022-08-03T03:37:23.442Z,100786.47
2022-08-03T03:39:49.968Z,100784.22
2022-08-03T03:42:16.823Z,100782.78
2022-08-03T03:44:43.473Z,100783.88
2022-08-03T03:47:10.000Z,100786.00
2022-08-03T03:49:37.898Z,100786.22
2022-08-03T03:52:04.560Z,100786.47
2022-08-03T03:54:44.910Z,100790.25
2022-08-03T03:57:13.187Z,100786.94
2022-08-03T03:59:41.595Z,100783.59
2022-08-03T04:02:09.229Z,100788.25
2022-08-03T04:04:55.136Z,100788.25
2022-08-03T04:07:42.784Z,100788.25
2022-08-03T04:10:35.807Z,100792.84
2022-08-03T04:13:06.958Z,100796.66
2022-08-03T04:15:34.883Z,100794.41
2022-08-03T04:18:03.585Z,100797.13
2022-08-03T04:20:35.395Z,100795.44
2022-08-03T04:23:03.221Z,100803.66
2022-08-03T04:25:40.318Z,100800.34
2022-08-03T04:28:30.047Z,100805.81
2022-08-03T04:30:56.805Z,100799.25
2022-08-03T04:33:29.212Z,100804.72
2022-08-03T04:36:02.713Z,100795.69
2022-08-03T04:38:32.873Z,100804.72
2022-08-03T04:41:01.087Z,100804.72
2022-08-03T04:43:29.420Z,100798.19
2022-08-03T04:45:56.883Z,100799.03
2022-08-03T04:48:23.874Z,100797.97
2022-08-03T04:50:50.602Z,100798.56
2022-08-03T04:53:18.127Z,100801.31
2022-08-03T04:55:46.043Z,100810.94
2022-08-03T04:58:12.728Z,100804.66
2022-08-03T05:00:39.330Z,100803.91
2022-08-03T05:03:20.327Z,100811.91
2022-08-03T05:05:52.851Z,100810.13
2022-08-03T05:08:20.454Z,100805.25
2022-08-03T05:10:54.669Z,100802.66
2022-08-03T05:13:21.128Z,100807.66
2022-08-03T05:15:47.579Z,100814.34
2022-08-03T05:18:14.512Z,100816.59
2022-08-03T05:20:41.354Z,100809.34
2022-08-03T05:23:07.872Z,100806.75
2022-08-03T05:25:34.401Z,100802.44
2022-08-03T05:28:01.360Z,100804.47
2022-08-03T05:30:33.483Z,100808.19
2022-08-03T05:33:01.585Z,100808.31
2022-08-03T05:36:01.149Z,100810.13
2022-08-03T05:38:15.471Z,100813.56
2022-08-03T05:40:57.236Z,100804.16
2022-08-03T05:43:24.497Z,100815.81
2022-08-03T05:46:11.452Z,100817.59
2022-08-03T05:48:37.862Z,100815.34
2022-08-03T05:51:15.612Z,100811.63
2022-08-03T05:53:43.099Z,100812.56
2022-08-03T05:56:14.666Z,100810.53
2022-08-03T05:58:47.372Z,100815.91
2022-08-03T06:01:15.792Z,100807.78
2022-08-03T06:03:42.548Z,100813.38
2022-08-03T06:06:09.022Z,100814.28
2022-08-03T06:08:35.664Z,100806.78
2022-08-03T06:11:02.304Z,100808.53
2022-08-03T06:13:29.441Z,100807.81
2022-08-03T06:15:55.943Z,100811.47
2022-08-03T06:18:24.014Z,100808.00
2022-08-03T06:20:51.228Z,100808.94
2022-08-03T06:23:19.049Z,100808.78
2022-08-03T06:25:45.931Z,100811.63
2022-08-03T06:31:00.941Z,100819.31
2022-08-03T06:33:48.509Z,100811.50
2022-08-03T06:36:14.064Z,100809.22
2022-08-03T06:38:40.513Z,100811.53
2022-08-03T06:41:06.956Z,100804.53
2022-08-03T06:43:37.423Z,100808.53
2022-08-03T06:46:05.587Z,100807.00
2022-08-03T06:48:32.598Z,100809.91
2022-08-03T06:50:59.505Z,100815.38
2022-08-03T06:53:26.330Z,100811.91
2022-08-03T06:55:54.977Z,100818.13
2022-08-03T06:58:22.098Z,100816.63
2022-08-03T07:00:48.600Z,100816.72
2022-08-03T07:03:15.166Z,100812.47
2022-08-03T07:05:43.483Z,100824.44
2022-08-03T07:08:10.087Z,100820.47
2022-08-03T07:10:37.009Z,100819.78
2022-08-03T07:13:03.838Z,100824.28
2022-08-03T07:15:53.953Z,100824.41
2022-08-03T07:18:17.717Z,100822.56
2022-08-03T07:20:56.432Z,100819.69
2022-08-03T07:23:22.940Z,100816.78
2022-08-03T07:25:50.776Z,100824.03
2022-08-03T07:28:17.334Z,100815.59
2022-08-03T07:30:43.805Z,100817.31
2022-08-03T07:33:10.223Z,100824.31
2022-08-03T07:35:38.211Z,100818.63
2022-08-03T07:38:05.586Z,100820.91
2022-08-03T07:40:32.232Z,100811.88
2022-08-03T07:42:59.878Z,100812.50
2022-08-03T07:45:26.852Z,100819.41
2022-08-03T07:47:54.212Z,100803.78
2022-08-03T07:50:21.544Z,100808.81
2022-08-03T07:52:48.872Z,100819.34
2022-08-03T07:55:17.101Z,100814.38
2022-08-03T07:57:43.697Z,100808.63
2022-08-03T08:00:16.746Z,100808.13
2022-08-03T08:02:44.003Z,100812.81
2022-08-03T08:05:11.115Z,100816.13
2022-08-03T08:07:38.938Z,100808.66
2022-08-03T08:10:07.554Z,100812.81
2022-08-03T08:12:34.104Z,100808.09
2022-08-03T08:15:00.587Z,100805.63
2022-08-03T08:17:27.290Z,100808.66
2022-08-03T08:19:53.990Z,100804.50
2022-08-03T08:22:23.468Z,100807.78
2022-08-03T08:24:58.384Z,100811.66
2022-08-03T08:27:24.890Z,100798.38
2022-08-03T08:29:54.231Z,100803.31
2022-08-03T08:32:23.441Z,100805.78
2022-08-03T08:34:50.030Z,100798.84
2022-08-03T08:37:16.493Z,100804.91
2022-08-03T08:39:42.984Z,100797.94
2022-08-03T08:42:10.270Z,100796.53
2022-08-03T08:44:36.985Z,100797.56
2022-08-03T08:47:04.485Z,100795.31
2022-08-03T08:49:32.954Z,100793.59
2022-08-03T08:52:01.046Z,100806.03
2022-08-03T08:54:29.641Z,100804.59
2022-08-03T08:56:57.516Z,100801.50
2022-08-03T08:59:25.062Z,100806.72
2022-08-03T09:01:51.669Z,100803.91
2022-08-03T09:04:18.522Z,100807.75
2022-08-03T09:07:04.396Z,100811.59
2022-08-03T09:10:10.452Z,100813.22
2022-08-03T09:12:39.130Z,100800.16
2022-08-03T09:15:28.331Z,100811.44
2022-08-03T09:17:56.849Z,100808.94
2022-08-03T09:20:24.847Z,100809.19
2022-08-03T09:22:56.491Z,100806.91
2022-08-03T09:25:29.007Z,100800.19
2022-08-03T09:27:55.623Z,100795.69
2022-08-03T09:30:34.405Z,100799.25
2022-08-03T09:33:06.567Z,100800.56
2022-08-03T09:35:52.982Z,100808.81
2022-08-03T09:38:28.510Z,100803.75
2022-08-03T09:41:00.001Z,100799.31
2022-08-03T09:43:27.614Z,100800.06
2022-08-03T09:46:03.554Z,100797.78
2022-08-03T09:48:31.821Z,100804.13
2022-08-03T09:51:12.834Z,100798.00
2022-08-03T09:53:58.832Z,100804.34
2022-08-03T09:56:44.758Z,100796.34
2022-08-03T09:59:13.043Z,100800.81
2022-08-03T10:01:43.271Z,100806.97
2022-08-03T10:04:15.073Z,100798.44
2022-08-03T10:06:41.620Z,100800.41
2022-08-03T10:09:17.028Z,100804.56
2022-08-03T10:11:46.820Z,100795.47
2022-08-03T10:14:19.997Z,100810.75
2022-08-03T10:16:52.697Z,100803.56
2022-08-03T10:19:19.475Z,100797.19
2022-08-03T10:21:53.582Z,100797.72
2022-08-03T10:24:29.625Z,100797.16
2022-08-03T10:27:11.412Z,100800.44
2022-08-03T10:29:39.507Z,100799.31
2022-08-03T10:32:19.021Z,100790.44
2022-08-03T10:34:50.387Z,100790.97
2022-08-03T10:37:17.881Z,100788.75
2022-08-03T10:39:54.089Z,100787.34
2022-08-03T10:42:35.118Z,100785.31
2022-08-03T10:45:08.693Z,100789.13
2022-08-03T10:47:36.551Z,100784.94
2022-08-03T10:50:10.106Z,100788.47
2022-08-03T10:52:53.447Z,100778.13
2022-08-03T10:55:50.385Z,100778.31
2022-08-03T10:58:36.782Z,100778.75
2022-08-03T11:01:08.568Z,100774.81
2022-08-03T11:03:57.662Z,100764.72
2022-08-03T11:06:26.413Z,100759.31
2022-08-03T11:09:11.195Z,100759.16
2022-08-03T11:11:39.371Z,100769.06
2022-08-03T11:14:10.045Z,100773.41
2022-08-03T11:16:39.527Z,100762.75
2022-08-03T11:19:07.914Z,100759.88
2022-08-03T11:21:52.672Z,100761.72
2022-08-03T11:24:37.591Z,100757.09
2022-08-03T11:27:29.798Z,100743.31
2022-08-03T11:30:10.955Z,100750.66
2022-08-03T11:32:37.349Z,100748.31
2022-08-03T11:35:08.626Z,100753.69
2022-08-03T11:37:35.472Z,100744.13
2022-08-03T11:40:03.020Z,100755.34
2022-08-03T11:42:29.585Z,100754.97
2022-08-03T11:44:58.180Z,100751.25
2022-08-03T11:47:50.560Z,100749.19
2022-08-03T11:50:19.347Z,100752.91
2022-08-03T11:52:46.088Z,100749.72
2022-08-03T11:55:14.279Z,100749.59
2022-08-03T11:58:58.210Z,100749.19
2022-08-03T12:00:32.687Z,100756.00
2022-08-03T12:03:02.188Z,100747.25
2022-08-03T12:05:42.448Z,100752.06
2022-08-03T12:08:27.709Z,100753.28
2022-08-03T12:10:56.492Z,100751.19
2022-08-03T12:14:05.773Z,100746.00
2022-08-03T12:16:18.635Z,100742.53
2022-08-03T12:18:45.518Z,100738.47
2022-08-03T12:21:12.708Z,100739.16
2022-08-03T12:23:39.317Z,100737.91
2022-08-03T12:26:08.681Z,100732.53
2022-08-03T12:28:37.619Z,100737.13
2022-08-03T12:31:12.104Z,100730.63
2022-08-03T12:34:05.096Z,100736.06
2022-08-03T12:36:34.909Z,100738.22
2022-08-03T12:39:06.082Z,100730.38
2022-08-03T12:41:37.990Z,100733.03
2022-08-03T12:44:06.269Z,100731.56
2022-08-03T12:46:38.009Z,100723.41
2022-08-03T12:49:12.089Z,100715.75
2022-08-03T12:52:05.353Z,100716.44
2022-08-03T12:54:35.937Z,100710.72
2022-08-03T12:57:03.820Z,100705.84
2022-08-03T12:59:41.213Z,100716.03
2022-08-03T13:02:20.371Z,100706.16
2022-08-03T13:04:51.772Z,100711.44
2022-08-03T13:07:19.889Z,100706.38
2022-08-03T13:09:48.556Z,100704.56
2022-08-03T13:12:20.995Z,100700.50
2022-08-03T13:14:51.109Z,100697.06
2022-08-03T13:17:18.050Z,100695.28
2022-08-03T13:19:45.949Z,100706.31
2022-08-03T13:22:12.594Z,100702.25
2022-08-03T13:24:39.316Z,100701.59
2022-08-03T13:28:02.022Z,100697.00
2022-08-03T13:29:54.798Z,100701.59
2022-08-03T13:32:21.664Z,100695.06
2022-08-03T13:34:48.592Z,100703.28
2022-08-03T13:37:15.967Z,100697.53
2022-08-03T13:39:48.238Z,100699.03
2022-08-03T13:42:27.266Z,100694.63
2022-08-03T13:44:53.724Z,100695.63
2022-08-03T13:47:20.667Z,100692.34
2022-08-03T13:49:59.476Z,100697.75
2022-08-03T13:52:29.238Z,100695.63
2022-08-03T13:54:59.645Z,100690.22
2022-08-03T13:58:04.904Z,100685.09
2022-08-03T14:00:13.312Z,100688.41
2022-08-03T14:02:53.999Z,100676.09
2022-08-03T14:05:22.750Z,100679.84
2022-08-03T14:07:49.370Z,100682.34
2022-08-03T14:10:15.904Z,100678.06
2022-08-03T14:12:42.399Z,100674.09
2022-08-03T14:15:10.158Z,100680.69
2022-08-03T14:17:42.078Z,100673.66
2022-08-03T14:20:38.481Z,100679.06
2022-08-03T14:23:02.955Z,100675.75
2022-08-03T14:25:31.095Z,100671.16
2022-08-03T14:28:09.849Z,100667.34
2022-08-03T14:30:36.723Z,100668.66
2022-08-03T14:33:03.477Z,100671.44
2022-08-03T14:35:29.965Z,100667.53
2022-08-03T14:37:56.487Z,100675.91
2022-08-03T14:40:23.035Z,100665.06
2022-08-03T14:42:49.535Z,100674.59
2022-08-03T14:45:19.940Z,100661.75
2022-08-03T14:50:24.524Z,100659.31
2022-08-03T14:50:42.931Z,100661.63
2022-08-03T14:53:12.320Z,100664.72
2022-08-03T14:55:49.852Z,100658.00
2022-08-03T14:58:19.562Z,100649.63
2022-08-03T15:00:47.927Z,100660.81
2022-08-03T15:03:16.569Z,100659.31
2022-08-03T15:05:43.692Z,100655.53
2022-08-03T15:08:10.244Z,100651.22
2022-08-03T15:10:40.441Z,100640.72
2022-08-03T15:13:12.888Z,100642.97
2022-08-03T15:15:39.935Z,100639.50
2022-08-03T15:18:06.465Z,100638.50
2022-08-03T15:20:43.897Z,100635.06
2022-08-03T15:23:11.455Z,100638.03
2022-08-03T15:26:28.726Z,100626.69
2022-08-03T15:28:24.611Z,100620.41
2022-08-03T15:30:54.586Z,100623.03
2022-08-03T15:33:21.175Z,100615.44
2022-08-03T15:35:48.030Z,100614.75
2022-08-03T15:38:14.757Z,100617.69
2022-08-03T15:40:41.602Z,100613.91
2022-08-03T15:43:08.293Z,100613.22
2022-08-03T15:45:36.093Z,100621.28
2022-08-03T15:48:03.154Z,100619.63
2022-08-03T15:50:29.594Z,100620.31
2022-08-03T15:52:56.515Z,100621.66
2022-08-03T15:55:23.224Z,100613.47
2022-08-03T15:59:10.431Z,100617.75
2022-08-03T16:00:36.234Z,100607.72
2022-08-03T16:03:03.222Z,100611.84
2022-08-03T16:05:29.675Z,100620.84
2022-08-03T16:08:03.221Z,100610.78
2022-08-03T16:10:31.420Z,100616.31
2022-08-03T16:13:01.168Z,100619.06
2022-08-03T16:15:27.733Z,100621.84
2022-08-03T16:17:54.592Z,100614.19
2022-08-03T16:20:30.827Z,100615.78
2022-08-03T16:23:10.480Z,100620.28
2022-08-03T16:25:41.875Z,100620.84
2022-08-03T16:28:13.897Z,100615.91
2022-08-03T16:30:43.705Z,100608.16
2022-08-03T16:33:11.174Z,100602.88
2022-08-03T16:35:38.057Z,100596.72
2022-08-03T16:38:09.599Z,100610.66
2022-08-03T16:40:36.805Z,100602.50
2022-08-03T16:43:18.979Z,100606.25
2022-08-03T16:45:47.219Z,100596.31
2022-08-03T16:48:15.115Z,100599.56
2022-08-03T16:50:41.868Z,100598.84
2022-08-03T16:53:09.868Z,100602.19
2022-08-03T16:55:49.065Z,100611.94
2022-08-03T16:58:19.679Z,100599.25
2022-08-03T17:01:10.933Z,100605.38
2022-08-03T17:04:02.411Z,100608.66
2022-08-03T17:06:34.107Z,100607.38
2022-08-03T17:09:03.109Z,100601.59
2022-08-03T17:11:33.128Z,100606.22
2022-08-03T17:14:00.520Z,100598.78
2022-08-03T17:16:27.422Z,100601.44
2022-08-03T17:19:02.532Z,100606.84
2022-08-03T17:21:32.457Z,100604.66
2022-08-03T17:24:23.700Z,100602.56
2022-08-03T17:26:53.722Z,100599.56
2022-08-03T17:29:25.137Z,100598.97
2022-08-03T17:31:53.017Z,100600.31
2022-08-03T17:34:20.943Z,100610.41
2022-08-03T17:37:27.006Z,100605.50
2022-08-03T17:39:58.196Z,100596.63
2022-08-03T17:42:38.870Z,100608.25
2022-08-03T17:45:06.746Z,100602.97
2022-08-03T17:47:42.880Z,100603.69
2022-08-03T17:50:25.124Z,100608.06
2022-08-03T17:52:59.638Z,100610.06
2022-08-03T17:55:55.494Z,100614.09
2022-08-03T17:58:21.792Z,100623.69
2022-08-03T18:02:03.174Z,100619.19
2022-08-03T18:04:01.156Z,100615.78
2022-08-03T18:06:31.280Z,100620.06
2022-08-03T18:09:00.083Z,100619.03
2022-08-03T18:11:35.742Z,100617.50
2022-08-03T18:14:16.153Z,100627.53
2022-08-03T18:16:56.324Z,100619.81
2022-08-03T18:20:03.530Z,100625.22
2022-08-03T18:22:10.637Z,100628.06
2022-08-03T18:24:38.269Z,100626.84
2022-08-03T18:27:06.629Z,100634.06
2022-08-03T18:29:37.064Z,100635.94
2022-08-03T18:32:13.339Z,100645.06
2022-08-03T18:34:53.094Z,100643.94
2022-08-03T18:37:25.251Z,100645.38
2022-08-03T18:39:58.316Z,100636.06
2022-08-03T18:42:27.010Z,100642.81
2022-08-03T18:44:56.194Z,100637.38
2022-08-03T18:47:23.477Z,100643.19
2022-08-03T18:50:08.454Z,100647.78
2022-08-03T18:52:53.041Z,100641.94
2022-08-03T18:58:30.146Z,100644.94
2022-08-03T19:01:15.417Z,100644.47
2022-08-03T19:04:35.655Z,100651.78
2022-08-03T19:07:07.966Z,100660.81
2022-08-03T19:09:48.734Z,100659.34
2022-08-03T19:12:30.963Z,100663.09
2022-08-03T19:15:13.520Z,100658.78
2022-08-03T19:17:50.355Z,100664.63
2022-08-03T19:20:22.515Z,100661.56
2022-08-03T19:22:52.565Z,100657.41
2022-08-03T19:25:19.216Z,100671.22
2022-08-03T19:27:48.185Z,100669.97
2022-08-03T19:30:35.638Z,100674.31
2022-08-03T19:33:06.911Z,100675.47
2022-08-03T19:35:52.214Z,100683.56
2022-08-03T19:38:29.069Z,100678.03
2022-08-03T19:41:03.514Z,100679.94
2022-08-03T19:43:53.492Z,100674.59
2022-08-03T19:46:27.618Z,100676.44
2022-08-03T19:49:04.680Z,100684.69
2022-08-03T19:51:58.391Z,100680.16
2022-08-03T19:54:29.622Z,100677.31
2022-08-03T19:57:00.328Z,100681.44
2022-08-03T19:59:30.053Z,100674.41
2022-08-03T20:01:57.486Z,100681.00
2022-08-03T20:04:24.976Z,100684.25
2022-08-03T20:06:52.188Z,100689.19
2022-08-03T20:09:20.678Z,100691.94
2022-08-03T20:11:47.807Z,100688.06
2022-08-03T20:14:20.842Z,100687.81
2022-08-03T20:16:53.515Z,100684.84
2022-08-03T20:19:20.155Z,100687.88
2022-08-03T20:21:48.820Z,100686.78
2022-08-03T20:24:36.671Z,100681.19
2022-08-03T20:27:08.056Z,100685.25
2022-08-03T20:30:05.406Z,100694.28
2022-08-03T20:32:27.872Z,100692.50
2022-08-03T20:34:54.376Z,100692.63
2022-08-03T20:37:22.060Z,100701.84
2022-08-03T20:39:49.424Z,100689.72
2022-08-03T20:42:21.770Z,100701.97
2022-08-03T20:45:04.439Z,100691.25
2022-08-03T20:47:33.862Z,100697.13
2022-08-03T20:50:03.912Z,100692.75
2022-08-03T20:52:33.333Z,100701.38
2022-08-03T20:55:02.182Z,100698.13
2022-08-03T20:57:33.195Z,100700.88
2022-08-03T21:00:07.095Z,100694.88
2022-08-03T21:02:36.650Z,100695.19
2022-08-03T21:05:08.605Z,100691.94
2022-08-03T21:10:38.004Z,100693.69
2022-08-03T21:13:00.961Z,100646.63
2022-08-03T21:13:12.153Z,100698.59
2022-08-03T21:13:17.454Z,100695.13
2022-08-03T21:16:12.730Z,100694.06
2022-08-03T21:18:51.925Z,100698.75
2022-08-03T21:21:22.170Z,100695.72
2022-08-03T21:23:51.117Z,100693.53
2022-08-03T21:26:19.838Z,100689.41
2022-08-03T21:28:48.860Z,100688.84
2022-08-03T21:31:25.617Z,100685.53
2022-08-03T21:34:05.101Z,100679.47
2022-08-03T21:36:35.961Z,100678.38
2022-08-03T21:39:05.564Z,100676.19
2022-08-03T21:41:32.604Z,100681.19
2022-08-03T21:44:00.470Z,100682.56
2022-08-03T21:46:36.860Z,100687.03
2022-08-03T21:49:52.053Z,100678.47
2022-08-03T21:51:59.700Z,100680.16
2022-08-03T21:54:34.977Z,100677.09
2022-08-03T21:57:08.718Z,100676.03
2022-08-03T21:59:38.069Z,100668.84
2022-08-03T22:02:06.462Z,100675.25
2022-08-03T22:04:55.115Z,100668.63
2022-08-03T22:07:24.047Z,100675.81
2022-08-03T22:09:52.138Z,100676.34
2022-08-03T22:12:23.115Z,100676.63
2022-08-03T22:15:00.362Z,100674.44
2022-08-03T22:17:55.146Z,100671.13
2022-08-03T22:20:16.487Z,100677.22
2022-08-03T22:22:55.217Z,100671.13
2022-08-03T22:25:29.451Z,100672.78
2022-08-03T22:27:58.478Z,100668.66
2022-08-03T22:30:25.104Z,100669.22
2022-08-03T22:32:54.313Z,100674.19
2022-08-03T22:35:21.529Z,100670.34
2022-08-03T22:37:53.872Z,100671.75
2022-08-03T22:40:20.658Z,100675.31
2022-08-03T22:42:51.959Z,100682.22
2022-08-03T22:46:07.331Z,100678.09
2022-08-03T22:48:08.014Z,100680.31
2022-08-03T22:50:35.283Z,100674.25
2022-08-03T22:53:02.086Z,100678.41
2022-08-03T22:55:29.099Z,100674.25
2022-08-03T22:57:56.323Z,100672.59
2022-08-03T23:00:24.140Z,100670.38
2022-08-03T23:02:51.805Z,100668.97
2022-08-03T23:06:02.318Z,100670.09
2022-08-03T23:08:15.011Z,100677.00
2022-08-03T23:10:47.088Z,100670.09
2022-08-03T23:13:17.408Z,100658.50
2022-08-03T23:16:06.492Z,100672.59
2022-08-03T23:18:37.781Z,100670.34
2022-08-03T23:21:11.203Z,100662.63
2022-08-03T23:23:44.613Z,100666.53
2022-08-03T23:26:12.122Z,100668.72
2022-08-03T23:28:39.833Z,100668.97
2022-08-03T23:31:08.185Z,100665.41
2022-08-03T23:33:38.709Z,100659.31
2022-08-03T23:36:28.778Z,100676.44
2022-08-03T23:38:54.163Z,100671.47
2022-08-03T23:41:22.111Z,100661.81
2022-08-03T23:43:51.853Z,100664.31
2022-08-03T23:46:22.492Z,100659.34
2022-08-03T23:48:50.883Z,100657.13
2022-08-03T23:51:36.974Z,100661.00
2022-08-03T23:54:09.879Z,100649.69
2022-08-03T23:56:49.644Z,100651.06
2022-08-03T23:59:40.193Z,100649.94
